sensor_id;sensor_type;location;lat;lon;timestamp;temperature;humidity
36280;DHT22;22317;47.936;12.742;2022-07-29T00:01:06;18.60;49.80
36280;DHT22;22317;47.936;12.742;2022-07-29T00:03:32;18.60;49.80
36280;DHT22;22317;47.936;12.742;2022-07-29T00:06:00;18.70;49.80
36280;DHT22;22317;47.936;12.742;2022-07-29T00:08:29;18.70;49.90
36280;DHT22;22317;47.936;12.742;2022-07-29T00:10:55;18.70;49.80
36280;DHT22;22317;47.936;12.742;2022-07-29T00:13:20;18.70;49.80
36280;DHT22;22317;47.936;12.742;2022-07-29T00:15:46;18.70;49.90
36280;DHT22;22317;47.936;12.742;2022-07-29T00:18:12;18.70;49.90
36280;DHT22;22317;47.936;12.742;2022-07-29T00:20:38;18.70;49.90
36280;DHT22;22317;47.936;12.742;2022-07-29T00:23:06;18.70;49.90
36280;DHT22;22317;47.936;12.742;2022-07-29T00:25:32;18.70;50.00
36280;DHT22;22317;47.936;12.742;2022-07-29T00:27:58;18.70;50.00
36280;DHT22;22317;47.936;12.742;2022-07-29T00:30:24;18.80;50.10
36280;DHT22;22317;47.936;12.742;2022-07-29T00:32:52;18.80;50.20
36280;DHT22;22317;47.936;12.742;2022-07-29T00:35:18;18.80;50.00
36280;DHT22;22317;47.936;12.742;2022-07-29T00:38:02;18.80;49.80
36280;DHT22;22317;47.936;12.742;2022-07-29T00:40:28;18.80;49.70
36280;DHT22;22317;47.936;12.742;2022-07-29T00:42:59;18.80;49.60
36280;DHT22;22317;47.936;12.742;2022-07-29T00:45:25;18.80;49.50
36280;DHT22;22317;47.936;12.742;2022-07-29T00:47:51;18.70;49.40
36280;DHT22;22317;47.936;12.742;2022-07-29T00:50:17;18.70;49.30
36280;DHT22;22317;47.936;12.742;2022-07-29T00:52:43;18.60;49.30
36280;DHT22;22317;47.936;12.742;2022-07-29T00:55:11;18.60;49.30
36280;DHT22;22317;47.936;12.742;2022-07-29T00:57:39;18.50;49.40
36280;DHT22;22317;47.936;12.742;2022-07-29T01:00:13;16.90;48.60
36280;DHT22;22317;47.936;12.742;2022-07-29T01:02:40;18.50;49.50
36280;DHT22;22317;47.936;12.742;2022-07-29T01:05:06;18.50;49.50
36280;DHT22;22317;47.936;12.742;2022-07-29T01:07:36;18.50;49.50
36280;DHT22;22317;47.936;12.742;2022-07-29T01:10:12;18.40;49.50
36280;DHT22;22317;47.936;12.742;2022-07-29T01:12:40;18.40;49.40
36280;DHT22;22317;47.936;12.742;2022-07-29T01:15:08;18.40;49.50
36280;DHT22;22317;47.936;12.742;2022-07-29T01:26:45;18.30;49.80
36280;DHT22;22317;47.936;12.742;2022-07-29T01:30:02;18.30;49.80
36280;DHT22;22317;47.936;12.742;2022-07-29T01:32:33;18.30;50.00
36280;DHT22;22317;47.936;12.742;2022-07-29T01:35:06;18.20;49.40
36280;DHT22;22317;47.936;12.742;2022-07-29T01:38:15;18.30;50.00
36280;DHT22;22317;47.936;12.742;2022-07-29T01:40:47;18.20;50.20
36280;DHT22;22317;47.936;12.742;2022-07-29T01:43:17;18.20;50.20
36280;DHT22;22317;47.936;12.742;2022-07-29T01:45:52;18.20;50.30
36280;DHT22;22317;47.936;12.742;2022-07-29T01:48:22;18.20;50.30
36280;DHT22;22317;47.936;12.742;2022-07-29T01:50:57;18.20;50.30
36280;DHT22;22317;47.936;12.742;2022-07-29T01:53:35;18.20;50.20
36280;DHT22;22317;47.936;12.742;2022-07-29T01:56:03;18.20;50.20
36280;DHT22;22317;47.936;12.742;2022-07-29T01:58:31;18.10;50.20
36280;DHT22;22317;47.936;12.742;2022-07-29T02:01:05;18.10;50.30
36280;DHT22;22317;47.936;12.742;2022-07-29T02:03:34;18.10;50.00
36280;DHT22;22317;47.936;12.742;2022-07-29T02:06:03;18.10;50.40
36280;DHT22;22317;47.936;12.742;2022-07-29T02:08:33;18.10;50.40
36280;DHT22;22317;47.936;12.742;2022-07-29T02:11:00;18.10;50.40
36280;DHT22;22317;47.936;12.742;2022-07-29T02:13:28;18.20;50.40
36280;DHT22;22317;47.936;12.742;2022-07-29T02:15:56;18.20;50.40
36280;DHT22;22317;47.936;12.742;2022-07-29T02:18:23;18.30;50.40
36280;DHT22;22317;47.936;12.742;2022-07-29T02:20:53;18.30;50.40
36280;DHT22;22317;47.936;12.742;2022-07-29T02:23:23;18.30;50.40
36280;DHT22;22317;47.936;12.742;2022-07-29T02:25:52;18.30;50.40
36280;DHT22;22317;47.936;12.742;2022-07-29T02:28:19;18.40;50.50
36280;DHT22;22317;47.936;12.742;2022-07-29T02:30:47;18.40;50.50
36280;DHT22;22317;47.936;12.742;2022-07-29T02:33:15;18.40;50.50
36280;DHT22;22317;47.936;12.742;2022-07-29T02:35:43;18.40;50.50
36280;DHT22;22317;47.936;12.742;2022-07-29T02:38:13;18.40;50.60
36280;DHT22;22317;47.936;12.742;2022-07-29T02:41:00;18.40;50.60
36280;DHT22;22317;47.936;12.742;2022-07-29T02:43:27;18.30;50.50
36280;DHT22;22317;47.936;12.742;2022-07-29T02:45:54;18.30;50.50
36280;DHT22;22317;47.936;12.742;2022-07-29T02:51:24;18.30;50.50
36280;DHT22;22317;47.936;12.742;2022-07-29T02:53:53;18.30;50.60
36280;DHT22;22317;47.936;12.742;2022-07-29T02:56:25;18.30;50.80
36280;DHT22;22317;47.936;12.742;2022-07-29T02:58:55;18.30;50.90
36280;DHT22;22317;47.936;12.742;2022-07-29T03:01:23;18.80;51.40
36280;DHT22;22317;47.936;12.742;2022-07-29T03:03:52;18.30;51.10
36280;DHT22;22317;47.936;12.742;2022-07-29T03:06:20;18.30;51.20
36280;DHT22;22317;47.936;12.742;2022-07-29T03:08:46;18.30;51.30
36280;DHT22;22317;47.936;12.742;2022-07-29T03:11:13;18.30;51.40
36280;DHT22;22317;47.936;12.742;2022-07-29T03:13:39;18.30;51.50
36280;DHT22;22317;47.936;12.742;2022-07-29T03:16:06;18.30;51.60
36280;DHT22;22317;47.936;12.742;2022-07-29T03:18:34;18.20;51.70
36280;DHT22;22317;47.936;12.742;2022-07-29T03:21:00;18.20;52.00
36280;DHT22;22317;47.936;12.742;2022-07-29T03:23:26;18.20;52.30
36280;DHT22;22317;47.936;12.742;2022-07-29T03:25:54;18.20;52.40
36280;DHT22;22317;47.936;12.742;2022-07-29T03:28:20;18.20;52.70
36280;DHT22;22317;47.936;12.742;2022-07-29T03:30:46;18.20;52.80
36280;DHT22;22317;47.936;12.742;2022-07-29T03:33:12;18.20;53.00
36280;DHT22;22317;47.936;12.742;2022-07-29T03:35:38;18.20;52.70
36280;DHT22;22317;47.936;12.742;2022-07-29T03:38:04;18.10;53.20
36280;DHT22;22317;47.936;12.742;2022-07-29T03:40:46;18.10;53.30
36280;DHT22;22317;47.936;12.742;2022-07-29T03:43:15;18.20;53.50
36280;DHT22;22317;47.936;12.742;2022-07-29T03:45:49;18.10;53.50
36280;DHT22;22317;47.936;12.742;2022-07-29T03:48:20;18.10;53.60
36280;DHT22;22317;47.936;12.742;2022-07-29T03:50:46;18.10;53.70
36280;DHT22;22317;47.936;12.742;2022-07-29T03:53:12;18.10;53.80
36280;DHT22;22317;47.936;12.742;2022-07-29T03:55:45;18.10;53.90
36280;DHT22;22317;47.936;12.742;2022-07-29T03:58:13;18.00;53.40
36280;DHT22;22317;47.936;12.742;2022-07-29T04:00:41;18.10;54.00
36280;DHT22;22317;47.936;12.742;2022-07-29T04:03:09;18.00;54.00
36280;DHT22;22317;47.936;12.742;2022-07-29T04:05:35;18.00;54.70
36280;DHT22;22317;47.936;12.742;2022-07-29T04:08:00;18.00;54.00
36280;DHT22;22317;47.936;12.742;2022-07-29T04:10:26;18.00;53.60
36280;DHT22;22317;47.936;12.742;2022-07-29T04:12:52;18.00;53.70
36280;DHT22;22317;47.936;12.742;2022-07-29T04:15:18;18.00;54.20
36280;DHT22;22317;47.936;12.742;2022-07-29T04:17:44;18.00;54.30
36280;DHT22;22317;47.936;12.742;2022-07-29T04:20:10;18.00;54.40
36280;DHT22;22317;47.936;12.742;2022-07-29T04:22:39;18.00;54.40
36280;DHT22;22317;47.936;12.742;2022-07-29T04:25:05;18.00;54.00
36280;DHT22;22317;47.936;12.742;2022-07-29T04:27:34;18.00;54.50
36280;DHT22;22317;47.936;12.742;2022-07-29T04:30:00;17.90;54.50
36280;DHT22;22317;47.936;12.742;2022-07-29T04:32:26;17.90;54.70
36280;DHT22;22317;47.936;12.742;2022-07-29T04:34:54;17.90;54.50
36280;DHT22;22317;47.936;12.742;2022-07-29T04:37:20;17.90;55.00
36280;DHT22;22317;47.936;12.742;2022-07-29T04:39:48;17.90;55.10
36280;DHT22;22317;47.936;12.742;2022-07-29T04:42:14;17.90;55.10
36280;DHT22;22317;47.936;12.742;2022-07-29T04:44:40;17.90;55.10
36280;DHT22;22317;47.936;12.742;2022-07-29T04:47:08;17.90;55.10
36280;DHT22;22317;47.936;12.742;2022-07-29T04:49:34;17.90;55.30
36280;DHT22;22317;47.936;12.742;2022-07-29T04:51:59;18.00;55.30
36280;DHT22;22317;47.936;12.742;2022-07-29T04:54:28;18.00;55.30
36280;DHT22;22317;47.936;12.742;2022-07-29T04:57:00;18.00;55.30
36280;DHT22;22317;47.936;12.742;2022-07-29T04:59:26;18.10;55.30
36280;DHT22;22317;47.936;12.742;2022-07-29T05:01:52;18.10;55.10
36280;DHT22;22317;47.936;12.742;2022-07-29T05:04:18;18.10;55.10
36280;DHT22;22317;47.936;12.742;2022-07-29T05:06:43;18.10;55.10
36280;DHT22;22317;47.936;12.742;2022-07-29T05:09:09;18.20;55.20
36280;DHT22;22317;47.936;12.742;2022-07-29T05:11:38;18.20;55.20
36280;DHT22;22317;47.936;12.742;2022-07-29T05:14:04;18.20;55.20
36280;DHT22;22317;47.936;12.742;2022-07-29T05:16:30;18.20;55.10
36280;DHT22;22317;47.936;12.742;2022-07-29T05:19:03;18.20;55.20
36280;DHT22;22317;47.936;12.742;2022-07-29T05:21:35;18.20;55.40
36280;DHT22;22317;47.936;12.742;2022-07-29T05:24:01;18.20;55.40
36280;DHT22;22317;47.936;12.742;2022-07-29T05:26:26;18.30;55.50
36280;DHT22;22317;47.936;12.742;2022-07-29T05:28:52;18.30;55.50
36280;DHT22;22317;47.936;12.742;2022-07-29T05:31:19;18.30;55.50
36280;DHT22;22317;47.936;12.742;2022-07-29T05:33:45;18.40;55.60
36280;DHT22;22317;47.936;12.742;2022-07-29T05:36:11;18.40;55.60
36280;DHT22;22317;47.936;12.742;2022-07-29T05:38:37;18.40;55.50
36280;DHT22;22317;47.936;12.742;2022-07-29T05:41:03;18.50;55.50
36280;DHT22;22317;47.936;12.742;2022-07-29T05:43:29;18.60;55.50
36280;DHT22;22317;47.936;12.742;2022-07-29T05:45:56;18.60;55.40
36280;DHT22;22317;47.936;12.742;2022-07-29T05:48:22;18.70;55.40
36280;DHT22;22317;47.936;12.742;2022-07-29T05:50:48;18.70;55.20
36280;DHT22;22317;47.936;12.742;2022-07-29T05:53:14;18.80;55.10
36280;DHT22;22317;47.936;12.742;2022-07-29T05:55:40;18.90;54.90
36280;DHT22;22317;47.936;12.742;2022-07-29T05:58:05;18.90;54.20
36280;DHT22;22317;47.936;12.742;2022-07-29T06:00:31;18.90;54.20
36280;DHT22;22317;47.936;12.742;2022-07-29T06:02:57;19.10;54.70
36280;DHT22;22317;47.936;12.742;2022-07-29T06:05:23;19.20;54.50
36280;DHT22;22317;47.936;12.742;2022-07-29T06:07:48;19.30;54.30
36280;DHT22;22317;47.936;12.742;2022-07-29T06:10:14;22.40;56.10
36280;DHT22;22317;47.936;12.742;2022-07-29T06:12:40;19.40;54.10
36280;DHT22;22317;47.936;12.742;2022-07-29T06:15:06;19.60;53.80
36280;DHT22;22317;47.936;12.742;2022-07-29T06:17:32;19.60;54.30
36280;DHT22;22317;47.936;12.742;2022-07-29T06:20:01;19.70;54.30
36280;DHT22;22317;47.936;12.742;2022-07-29T06:22:28;19.80;54.30
36280;DHT22;22317;47.936;12.742;2022-07-29T06:24:57;19.90;53.50
36280;DHT22;22317;47.936;12.742;2022-07-29T06:27:22;19.90;54.00
36280;DHT22;22317;47.936;12.742;2022-07-29T06:29:48;20.00;54.00
36280;DHT22;22317;47.936;12.742;2022-07-29T06:32:14;20.10;53.90
36280;DHT22;22317;47.936;12.742;2022-07-29T06:34:40;20.10;53.80
36280;DHT22;22317;47.936;12.742;2022-07-29T06:37:09;20.20;53.80
36280;DHT22;22317;47.936;12.742;2022-07-29T06:39:35;20.30;53.70
36280;DHT22;22317;47.936;12.742;2022-07-29T06:42:03;20.30;53.40
36280;DHT22;22317;47.936;12.742;2022-07-29T06:44:31;20.40;53.40
36280;DHT22;22317;47.936;12.742;2022-07-29T06:47:02;20.40;53.30
36280;DHT22;22317;47.936;12.742;2022-07-29T06:49:28;20.50;53.20
36280;DHT22;22317;47.936;12.742;2022-07-29T06:51:54;20.60;53.10
36280;DHT22;22317;47.936;12.742;2022-07-29T06:54:20;20.70;53.10
36280;DHT22;22317;47.936;12.742;2022-07-29T06:56:47;20.70;52.40
36280;DHT22;22317;47.936;12.742;2022-07-29T06:59:13;20.90;53.00
36280;DHT22;22317;47.936;12.742;2022-07-29T07:01:41;21.00;52.90
36280;DHT22;22317;47.936;12.742;2022-07-29T07:04:07;21.20;52.70
36280;DHT22;22317;47.936;12.742;2022-07-29T07:06:34;21.20;52.50
36280;DHT22;22317;47.936;12.742;2022-07-29T07:09:01;21.30;52.30
36280;DHT22;22317;47.936;12.742;2022-07-29T07:11:27;21.40;52.10
36280;DHT22;22317;47.936;12.742;2022-07-29T07:13:59;21.50;52.10
36280;DHT22;22317;47.936;12.742;2022-07-29T07:16:31;21.70;52.10
36280;DHT22;22317;47.936;12.742;2022-07-29T07:18:57;21.80;51.90
36280;DHT22;22317;47.936;12.742;2022-07-29T07:21:22;21.90;51.70
36280;DHT22;22317;47.936;12.742;2022-07-29T07:23:48;22.00;51.50
36280;DHT22;22317;47.936;12.742;2022-07-29T07:26:14;22.20;51.30
36280;DHT22;22317;47.936;12.742;2022-07-29T07:28:40;22.30;50.70
36280;DHT22;22317;47.936;12.742;2022-07-29T07:31:08;22.40;50.30
36280;DHT22;22317;47.936;12.742;2022-07-29T07:33:38;22.50;50.30
36280;DHT22;22317;47.936;12.742;2022-07-29T07:36:10;22.60;50.20
36280;DHT22;22317;47.936;12.742;2022-07-29T07:38:35;22.70;50.10
36280;DHT22;22317;47.936;12.742;2022-07-29T07:41:02;22.80;49.90
36280;DHT22;22317;47.936;12.742;2022-07-29T07:43:27;22.90;49.90
36280;DHT22;22317;47.936;12.742;2022-07-29T07:45:53;23.00;49.80
36280;DHT22;22317;47.936;12.742;2022-07-29T07:48:19;23.10;49.20
36280;DHT22;22317;47.936;12.742;2022-07-29T07:50:45;23.10;48.80
36280;DHT22;22317;47.936;12.742;2022-07-29T07:53:11;23.10;48.70
36280;DHT22;22317;47.936;12.742;2022-07-29T07:55:55;23.10;48.50
36280;DHT22;22317;47.936;12.742;2022-07-29T07:58:20;23.20;48.50
36280;DHT22;22317;47.936;12.742;2022-07-29T08:00:47;23.30;48.40
36280;DHT22;22317;47.936;12.742;2022-07-29T08:03:13;23.50;48.30
36280;DHT22;22317;47.936;12.742;2022-07-29T08:05:42;23.60;48.00
36280;DHT22;22317;47.936;12.742;2022-07-29T08:08:10;23.70;47.50
36280;DHT22;22317;47.936;12.742;2022-07-29T08:10:41;23.80;47.30
36280;DHT22;22317;47.936;12.742;2022-07-29T08:13:25;23.90;47.20
36280;DHT22;22317;47.936;12.742;2022-07-29T08:15:53;24.10;47.20
36280;DHT22;22317;47.936;12.742;2022-07-29T08:18:37;24.30;47.00
36280;DHT22;22317;47.936;12.742;2022-07-29T08:21:04;24.50;46.60
36280;DHT22;22317;47.936;12.742;2022-07-29T08:23:30;24.70;46.10
36280;DHT22;22317;47.936;12.742;2022-07-29T08:26:08;23.70;45.10
36280;DHT22;22317;47.936;12.742;2022-07-29T08:28:37;24.90;45.10
36280;DHT22;22317;47.936;12.742;2022-07-29T08:31:07;25.00;44.90
36280;DHT22;22317;47.936;12.742;2022-07-29T08:33:33;25.00;44.40
36280;DHT22;22317;47.936;12.742;2022-07-29T08:35:59;25.00;44.20
36280;DHT22;22317;47.936;12.742;2022-07-29T08:38:25;24.90;43.80
36280;DHT22;22317;47.936;12.742;2022-07-29T08:40:52;24.80;43.80
36280;DHT22;22317;47.936;12.742;2022-07-29T08:43:18;24.80;44.00
36280;DHT22;22317;47.936;12.742;2022-07-29T08:45:54;24.90;44.00
36280;DHT22;22317;47.936;12.742;2022-07-29T08:48:22;24.80;43.60
36280;DHT22;22317;47.936;12.742;2022-07-29T08:50:55;24.80;43.80
36280;DHT22;22317;47.936;12.742;2022-07-29T08:53:26;24.90;43.70
36280;DHT22;22317;47.936;12.742;2022-07-29T08:55:53;25.10;43.50
36280;DHT22;22317;47.936;12.742;2022-07-29T08:58:22;25.20;43.30
36280;DHT22;22317;47.936;12.742;2022-07-29T09:00:53;25.30;43.10
36280;DHT22;22317;47.936;12.742;2022-07-29T09:03:22;25.50;43.00
36280;DHT22;22317;47.936;12.742;2022-07-29T09:05:48;25.60;42.80
36280;DHT22;22317;47.936;12.742;2022-07-29T09:08:15;25.70;42.30
36280;DHT22;22317;47.936;12.742;2022-07-29T09:10:48;25.80;42.20
36280;DHT22;22317;47.936;12.742;2022-07-29T09:13:14;25.90;41.70
36280;DHT22;22317;47.936;12.742;2022-07-29T09:15:40;26.10;41.50
36280;DHT22;22317;47.936;12.742;2022-07-29T09:18:05;26.10;41.20
36280;DHT22;22317;47.936;12.742;2022-07-29T09:20:34;26.20;41.00
36280;DHT22;22317;47.936;12.742;2022-07-29T09:23:18;26.20;40.80
36280;DHT22;22317;47.936;12.742;2022-07-29T09:25:44;26.30;40.80
36280;DHT22;22317;47.936;12.742;2022-07-29T09:28:15;26.40;40.70
36280;DHT22;22317;47.936;12.742;2022-07-29T09:33:23;26.50;40.00
36280;DHT22;22317;47.936;12.742;2022-07-29T09:36:18;26.60;40.10
36280;DHT22;22317;47.936;12.742;2022-07-29T09:38:57;26.80;39.70
36280;DHT22;22317;47.936;12.742;2022-07-29T09:41:23;26.90;39.80
36280;DHT22;22317;47.936;12.742;2022-07-29T09:43:58;27.00;39.70
36280;DHT22;22317;47.936;12.742;2022-07-29T09:46:25;27.10;39.00
36280;DHT22;22317;47.936;12.742;2022-07-29T09:49:11;27.20;39.00
36280;DHT22;22317;47.936;12.742;2022-07-29T09:51:43;27.20;38.40
36280;DHT22;22317;47.936;12.742;2022-07-29T09:54:22;27.30;38.60
36280;DHT22;22317;47.936;12.742;2022-07-29T09:56:48;27.40;37.50
36280;DHT22;22317;47.936;12.742;2022-07-29T09:59:14;27.40;37.40
36280;DHT22;22317;47.936;12.742;2022-07-29T10:01:43;27.40;37.20
36280;DHT22;22317;47.936;12.742;2022-07-29T10:04:09;27.50;37.30
36280;DHT22;22317;47.936;12.742;2022-07-29T10:06:38;27.60;37.10
36280;DHT22;22317;47.936;12.742;2022-07-29T10:09:23;27.70;37.00
36280;DHT22;22317;47.936;12.742;2022-07-29T10:12:12;27.90;36.20
36280;DHT22;22317;47.936;12.742;2022-07-29T10:14:41;28.00;34.50
36280;DHT22;22317;47.936;12.742;2022-07-29T10:17:09;28.10;35.00
36280;DHT22;22317;47.936;12.742;2022-07-29T10:19:36;28.20;34.70
36280;DHT22;22317;47.936;12.742;2022-07-29T10:22:06;28.30;34.20
36280;DHT22;22317;47.936;12.742;2022-07-29T10:24:34;28.20;33.10
36280;DHT22;22317;47.936;12.742;2022-07-29T10:27:02;28.20;33.00
36280;DHT22;22317;47.936;12.742;2022-07-29T10:29:28;28.10;32.90
36280;DHT22;22317;47.936;12.742;2022-07-29T10:41:13;28.30;31.30
36280;DHT22;22317;47.936;12.742;2022-07-29T10:43:54;28.20;30.50
36280;DHT22;22317;47.936;12.742;2022-07-29T10:46:21;28.20;31.30
36280;DHT22;22317;47.936;12.742;2022-07-29T10:57:12;28.30;30.00
36280;DHT22;22317;47.936;12.742;2022-07-29T10:59:38;28.30;30.00
36280;DHT22;22317;47.936;12.742;2022-07-29T11:07:25;28.30;30.10
36280;DHT22;22317;47.936;12.742;2022-07-29T11:15:09;28.70;30.80
36280;DHT22;22317;47.936;12.742;2022-07-29T11:20:47;28.90;29.60
36280;DHT22;22317;47.936;12.742;2022-07-29T11:23:28;29.00;30.10
36280;DHT22;22317;47.936;12.742;2022-07-29T11:26:15;29.20;30.00
36280;DHT22;22317;47.936;12.742;2022-07-29T11:29:08;29.30;29.90
36280;DHT22;22317;47.936;12.742;2022-07-29T11:31:42;29.40;29.90
36280;DHT22;22317;47.936;12.742;2022-07-29T11:35:10;29.40;29.90
36280;DHT22;22317;47.936;12.742;2022-07-29T11:47:42;29.60;29.80
36280;DHT22;22317;47.936;12.742;2022-07-29T11:50:26;29.60;29.80
36280;DHT22;22317;47.936;12.742;2022-07-29T11:52:53;29.70;29.80
36280;DHT22;22317;47.936;12.742;2022-07-29T11:55:20;29.70;29.90
36280;DHT22;22317;47.936;12.742;2022-07-29T11:57:50;30.70;30.40
36280;DHT22;22317;47.936;12.742;2022-07-29T12:02:51;29.80;29.30
36280;DHT22;22317;47.936;12.742;2022-07-29T12:05:19;29.80;29.50
36280;DHT22;22317;47.936;12.742;2022-07-29T12:07:46;29.90;29.50
36280;DHT22;22317;47.936;12.742;2022-07-29T12:10:12;30.00;29.40
36280;DHT22;22317;47.936;12.742;2022-07-29T12:12:38;30.10;29.10
36280;DHT22;22317;47.936;12.742;2022-07-29T12:17:37;30.30;29.60
36280;DHT22;22317;47.936;12.742;2022-07-29T12:20:05;30.50;29.80
36280;DHT22;22317;47.936;12.742;2022-07-29T12:22:32;30.60;29.50
36280;DHT22;22317;47.936;12.742;2022-07-29T12:25:07;30.80;28.70
36280;DHT22;22317;47.936;12.742;2022-07-29T12:27:36;30.80;28.80
36280;DHT22;22317;47.936;12.742;2022-07-29T12:30:08;30.90;28.70
36280;DHT22;22317;47.936;12.742;2022-07-29T12:35:19;31.30;28.30
36280;DHT22;22317;47.936;12.742;2022-07-29T12:37:47;31.30;28.30
36280;DHT22;22317;47.936;12.742;2022-07-29T12:40:16;31.50;27.80
36280;DHT22;22317;47.936;12.742;2022-07-29T12:45:31;31.60;27.30
36280;DHT22;22317;47.936;12.742;2022-07-29T12:47:57;31.60;27.90
36280;DHT22;22317;47.936;12.742;2022-07-29T12:50:23;31.70;28.10
36280;DHT22;22317;47.936;12.742;2022-07-29T12:52:50;31.80;27.90
36280;DHT22;22317;47.936;12.742;2022-07-29T12:55:37;31.90;27.80
36280;DHT22;22317;47.936;12.742;2022-07-29T12:58:02;32.10;27.60
36280;DHT22;22317;47.936;12.742;2022-07-29T13:00:27;32.10;27.60
36280;DHT22;22317;47.936;12.742;2022-07-29T13:02:58;32.10;27.70
36280;DHT22;22317;47.936;12.742;2022-07-29T13:05:42;32.20;27.60
36280;DHT22;22317;47.936;12.742;2022-07-29T13:08:16;32.40;27.50
36280;DHT22;22317;47.936;12.742;2022-07-29T13:10:43;32.50;27.70
36280;DHT22;22317;47.936;12.742;2022-07-29T13:13:14;32.70;27.80
36280;DHT22;22317;47.936;12.742;2022-07-29T13:15:45;32.80;27.20
36280;DHT22;22317;47.936;12.742;2022-07-29T13:18:34;32.80;26.70
36280;DHT22;22317;47.936;12.742;2022-07-29T13:21:13;32.70;26.00
36280;DHT22;22317;47.936;12.742;2022-07-29T13:23:39;32.60;26.40
36280;DHT22;22317;47.936;12.742;2022-07-29T13:26:09;32.60;26.90
36280;DHT22;22317;47.936;12.742;2022-07-29T13:28:36;32.70;27.30
36280;DHT22;22317;47.936;12.742;2022-07-29T13:31:05;32.70;27.30
36280;DHT22;22317;47.936;12.742;2022-07-29T13:33:34;32.80;27.20
36280;DHT22;22317;47.936;12.742;2022-07-29T13:36:03;32.80;26.90
36280;DHT22;22317;47.936;12.742;2022-07-29T13:38:34;32.90;26.60
36280;DHT22;22317;47.936;12.742;2022-07-29T13:41:00;33.50;27.10
36280;DHT22;22317;47.936;12.742;2022-07-29T13:43:28;33.00;27.10
36280;DHT22;22317;47.936;12.742;2022-07-29T13:45:54;33.10;27.10
36280;DHT22;22317;47.936;12.742;2022-07-29T13:48:20;33.20;27.10
36280;DHT22;22317;47.936;12.742;2022-07-29T13:50:46;33.40;26.80
36280;DHT22;22317;47.936;12.742;2022-07-29T13:53:13;33.40;26.70
36280;DHT22;22317;47.936;12.742;2022-07-29T13:55:39;33.50;26.60
36280;DHT22;22317;47.936;12.742;2022-07-29T13:58:08;33.50;26.50
36280;DHT22;22317;47.936;12.742;2022-07-29T14:00:37;33.50;26.50
36280;DHT22;22317;47.936;12.742;2022-07-29T14:03:06;33.40;26.10
36280;DHT22;22317;47.936;12.742;2022-07-29T14:05:31;33.10;25.90
36280;DHT22;22317;47.936;12.742;2022-07-29T14:07:57;33.10;26.10
36280;DHT22;22317;47.936;12.742;2022-07-29T14:10:23;33.00;26.00
36280;DHT22;22317;47.936;12.742;2022-07-29T14:12:55;33.00;26.00
36280;DHT22;22317;47.936;12.742;2022-07-29T14:15:23;32.90;26.20
36280;DHT22;22317;47.936;12.742;2022-07-29T14:17:49;33.00;26.40
36280;DHT22;22317;47.936;12.742;2022-07-29T14:20:15;33.00;26.50
36280;DHT22;22317;47.936;12.742;2022-07-29T14:22:41;33.10;26.40
36280;DHT22;22317;47.936;12.742;2022-07-29T14:25:10;33.20;26.30
36280;DHT22;22317;47.936;12.742;2022-07-29T14:27:36;33.30;26.30
36280;DHT22;22317;47.936;12.742;2022-07-29T14:30:01;33.40;26.30
36280;DHT22;22317;47.936;12.742;2022-07-29T14:32:27;33.50;26.20
36280;DHT22;22317;47.936;12.742;2022-07-29T14:34:53;33.70;25.80
36280;DHT22;22317;47.936;12.742;2022-07-29T14:37:19;33.70;26.00
36280;DHT22;22317;47.936;12.742;2022-07-29T14:39:44;33.70;25.70
36280;DHT22;22317;47.936;12.742;2022-07-29T14:42:10;33.70;25.70
36280;DHT22;22317;47.936;12.742;2022-07-29T14:44:36;33.70;25.80
36280;DHT22;22317;47.936;12.742;2022-07-29T14:47:02;33.70;25.60
36280;DHT22;22317;47.936;12.742;2022-07-29T14:49:31;33.70;25.20
36280;DHT22;22317;47.936;12.742;2022-07-29T14:51:56;33.60;25.00
36280;DHT22;22317;47.936;12.742;2022-07-29T14:54:22;33.80;25.20
36280;DHT22;22317;47.936;12.742;2022-07-29T14:56:51;33.40;25.10
36280;DHT22;22317;47.936;12.742;2022-07-29T14:59:20;33.30;25.20
36280;DHT22;22317;47.936;12.742;2022-07-29T15:01:46;33.30;25.40
36280;DHT22;22317;47.936;12.742;2022-07-29T15:04:12;33.20;25.20
36280;DHT22;22317;47.936;12.742;2022-07-29T15:06:37;33.00;25.10
36280;DHT22;22317;47.936;12.742;2022-07-29T15:09:03;33.00;25.20
36280;DHT22;22317;47.936;12.742;2022-07-29T15:11:32;32.90;25.30
36280;DHT22;22317;47.936;12.742;2022-07-29T15:14:02;32.90;25.50
36280;DHT22;22317;47.936;12.742;2022-07-29T15:16:27;32.90;25.40
36280;DHT22;22317;47.936;12.742;2022-07-29T15:18:53;32.80;25.70
36280;DHT22;22317;47.936;12.742;2022-07-29T15:21:19;32.70;25.70
36280;DHT22;22317;47.936;12.742;2022-07-29T15:23:45;32.70;25.70
36280;DHT22;22317;47.936;12.742;2022-07-29T15:26:10;32.70;25.80
36280;DHT22;22317;47.936;12.742;2022-07-29T15:28:39;32.50;25.80
36280;DHT22;22317;47.936;12.742;2022-07-29T15:31:06;32.40;25.90
36280;DHT22;22317;47.936;12.742;2022-07-29T15:33:32;32.30;26.10
36280;DHT22;22317;47.936;12.742;2022-07-29T15:35:58;32.20;26.30
36280;DHT22;22317;47.936;12.742;2022-07-29T15:38:27;32.10;26.40
36280;DHT22;22317;47.936;12.742;2022-07-29T15:40:52;30.10;25.40
36280;DHT22;22317;47.936;12.742;2022-07-29T15:43:18;32.00;26.60
36280;DHT22;22317;47.936;12.742;2022-07-29T15:45:44;31.80;26.50
36280;DHT22;22317;47.936;12.742;2022-07-29T15:48:30;31.70;26.60
36280;DHT22;22317;47.936;12.742;2022-07-29T15:50:57;31.50;26.80
36280;DHT22;22317;47.936;12.742;2022-07-29T15:53:23;31.40;26.90
36280;DHT22;22317;47.936;12.742;2022-07-29T15:55:50;31.20;27.10
36280;DHT22;22317;47.936;12.742;2022-07-29T15:58:16;31.10;27.40
36280;DHT22;22317;47.936;12.742;2022-07-29T16:00:42;31.00;27.70
36280;DHT22;22317;47.936;12.742;2022-07-29T16:03:08;30.70;27.80
36280;DHT22;22317;47.936;12.742;2022-07-29T16:05:34;30.60;27.80
36280;DHT22;22317;47.936;12.742;2022-07-29T16:07:59;30.50;27.90
36280;DHT22;22317;47.936;12.742;2022-07-29T16:10:26;30.30;27.90
36280;DHT22;22317;47.936;12.742;2022-07-29T16:12:51;30.10;27.70
36280;DHT22;22317;47.936;12.742;2022-07-29T16:15:17;30.00;27.70
36280;DHT22;22317;47.936;12.742;2022-07-29T16:17:43;29.80;27.60
36280;DHT22;22317;47.936;12.742;2022-07-29T16:20:09;29.50;27.60
36280;DHT22;22317;47.936;12.742;2022-07-29T16:22:35;29.40;27.80
36280;DHT22;22317;47.936;12.742;2022-07-29T16:25:00;29.00;27.70
36280;DHT22;22317;47.936;12.742;2022-07-29T16:27:26;29.00;28.10
36280;DHT22;22317;47.936;12.742;2022-07-29T16:29:53;28.80;28.20
36280;DHT22;22317;47.936;12.742;2022-07-29T16:32:20;28.60;28.70